createdAt,value
2018-04-15T00:00:13.709Z,52.40
2018-04-15T00:02:45.480Z,44.37
2018-04-15T00:05:13.209Z,49.53
2018-04-15T00:07:43.761Z,53.87
2018-04-15T00:10:11.840Z,51.53
2018-04-15T00:12:53.548Z,56.27
2018-04-15T00:15:22.665Z,46.07
2018-04-15T00:17:51.700Z,53.50
2018-04-15T00:20:20.751Z,54.30
2018-04-15T00:22:49.429Z,56.13
2018-04-15T00:25:18.475Z,57.60
2018-04-15T00:28:08.383Z,63.50
2018-04-15T00:30:36.081Z,59.57
2018-04-15T00:33:18.530Z,57.60
2018-04-15T00:35:46.622Z,58.27
2018-04-15T00:38:15.405Z,61.57
2018-04-15T00:40:44.244Z,65.07
2018-04-15T00:43:12.949Z,67.13
2018-04-15T00:45:42.157Z,69.47
2018-04-15T00:48:19.509Z,63.93
2018-04-15T00:50:47.279Z,59.33
2018-04-15T00:53:16.489Z,61.47
2018-04-15T00:55:44.552Z,64.47
2018-04-15T00:58:13.384Z,82.50
2018-04-15T01:00:41.830Z,76.87
2018-04-15T01:03:11.361Z,67.53
2018-04-15T01:05:39.767Z,73.77
2018-04-15T01:08:20.959Z,73.33
2018-04-15T01:10:51.118Z,70.87
2018-04-15T01:13:26.768Z,80.03
2018-04-15T01:15:55.253Z,75.77
2018-04-15T01:21:22.689Z,91.50
2018-04-15T01:23:50.429Z,85.63
2018-04-15T01:26:21.730Z,89.80
2018-04-15T01:28:50.221Z,88.47
2018-04-15T01:31:21.871Z,86.90
2018-04-15T01:33:51.271Z,89.63
2018-04-15T01:36:19.776Z,92.30
2018-04-15T01:38:48.193Z,95.60
2018-04-15T01:41:19.761Z,91.60
2018-04-15T01:43:47.864Z,103.83
2018-04-15T01:46:15.648Z,90.97
2018-04-15T01:48:44.139Z,99.27
2018-04-15T01:51:14.239Z,95.90
2018-04-15T01:53:42.689Z,98.17
2018-04-15T01:56:12.503Z,93.93
2018-04-15T01:58:41.385Z,100.47
2018-04-15T02:01:11.838Z,106.93
2018-04-15T02:03:40.840Z,95.67
2018-04-15T02:06:09.484Z,95.07
2018-04-15T02:08:37.221Z,102.13
2018-04-15T02:11:15.540Z,89.33
2018-04-15T02:13:44.045Z,107.93
2018-04-15T02:16:17.377Z,102.37
2018-04-15T02:18:45.597Z,97.67
2018-04-15T02:21:19.052Z,96.90
2018-04-15T02:23:46.882Z,99.70
2018-04-15T02:26:17.108Z,99.20
2018-04-15T02:28:45.583Z,86.03
2018-04-15T02:31:15.243Z,91.90
2018-04-15T02:33:44.116Z,88.43
2018-04-15T02:36:12.283Z,105.80
2018-04-15T02:38:41.142Z,110.03
2018-04-15T02:41:10.650Z,93.37
2018-04-15T02:43:38.323Z,91.77
2018-04-15T02:46:08.741Z,87.57
2018-04-15T02:48:36.458Z,92.23
2018-04-15T02:51:07.182Z,94.67
2018-04-15T02:53:36.544Z,93.57
2018-04-15T02:56:05.010Z,94.17
2018-04-15T02:58:32.674Z,87.30
2018-04-15T03:01:03.601Z,99.83
2018-04-15T03:03:32.791Z,90.53
2018-04-15T03:06:02.213Z,91.03
2018-04-15T03:08:30.324Z,77.13
2018-04-15T03:10:59.120Z,92.07
2018-04-15T03:13:27.796Z,85.77
2018-04-15T03:15:59.496Z,92.53
2018-04-15T03:18:27.799Z,89.90
2018-04-15T03:20:57.330Z,77.03
2018-04-15T03:23:26.350Z,88.73
2018-04-15T03:25:55.084Z,85.10
2018-04-15T03:28:23.526Z,94.10
2018-04-15T03:31:02.433Z,94.47
2018-04-15T03:33:30.150Z,91.80
2018-04-15T03:36:13.432Z,91.17
2018-04-15T03:38:41.918Z,88.20
2018-04-15T03:41:29.506Z,86.53
2018-04-15T03:43:57.812Z,79.20
2018-04-15T03:46:33.019Z,83.20
2018-04-15T03:49:01.486Z,85.07
2018-04-15T03:51:29.944Z,78.70
2018-04-15T03:53:57.719Z,81.03
2018-04-15T03:56:25.483Z,82.17
2018-04-15T03:58:53.187Z,75.70
2018-04-15T04:01:20.923Z,80.17
2018-04-15T04:03:49.430Z,81.37
2018-04-15T04:06:19.985Z,76.87
2018-04-15T04:08:47.765Z,73.53
2018-04-15T04:11:31.504Z,76.63
2018-04-15T04:14:00.129Z,75.77
2018-04-15T04:16:28.254Z,90.93
2018-04-15T04:19:08.854Z,83.80
2018-04-15T04:21:55.048Z,84.67
2018-04-15T04:24:34.592Z,76.27
2018-04-15T04:27:03.146Z,64.30
2018-04-15T04:29:39.686Z,74.33
2018-04-15T04:32:09.035Z,82.50
2018-04-15T04:34:41.430Z,69.57
2018-04-15T04:37:09.926Z,77.03
2018-04-15T04:39:38.731Z,75.03
2018-04-15T04:42:06.450Z,88.03
2018-04-15T04:44:35.964Z,80.57
2018-04-15T04:47:04.892Z,86.40
2018-04-15T04:49:53.696Z,81.73
2018-04-15T04:52:22.015Z,82.53
2018-04-15T04:55:13.014Z,87.00
2018-04-15T04:57:40.797Z,79.37
2018-04-15T05:00:09.545Z,81.70
2018-04-15T05:02:37.968Z,92.17
2018-04-15T05:05:11.404Z,87.50
2018-04-15T05:07:40.562Z,92.40
2018-04-15T05:10:20.003Z,78.33
2018-04-15T05:12:47.743Z,90.23
2018-04-15T05:15:29.830Z,98.23
2018-04-15T05:17:58.249Z,90.43
2018-04-15T05:20:31.752Z,104.57
2018-04-15T05:23:00.195Z,82.67
2018-04-15T05:25:30.719Z,101.50
2018-04-15T05:27:58.473Z,76.53
2018-04-15T05:30:34.830Z,104.40
2018-04-15T05:33:03.834Z,99.30
2018-04-15T05:35:50.355Z,86.77
2018-04-15T05:38:18.210Z,76.53
2018-04-15T05:40:55.341Z,81.60
2018-04-15T05:43:23.456Z,98.40
2018-04-15T05:45:51.943Z,91.30
2018-04-15T05:48:20.426Z,97.30
2018-04-15T05:50:50.918Z,91.37
2018-04-15T05:53:19.210Z,79.70
2018-04-15T05:55:47.918Z,97.30
2018-04-15T05:58:16.359Z,104.70
2018-04-15T06:00:45.238Z,94.80
2018-04-15T06:03:13.724Z,79.30
2018-04-15T06:05:42.475Z,91.50
2018-04-15T06:08:11.078Z,89.73
2018-04-15T06:10:58.202Z,102.10
2018-04-15T06:13:26.655Z,90.77
2018-04-15T06:16:00.925Z,89.90
2018-04-15T06:18:29.792Z,80.63
2018-04-15T06:20:59.506Z,105.67
2018-04-15T06:23:27.162Z,94.27
2018-04-15T06:25:56.908Z,91.10
2018-04-15T06:28:25.034Z,97.63
2018-04-15T06:30:52.757Z,100.00
2018-04-15T06:33:21.234Z,88.50
2018-04-15T06:35:51.838Z,95.57
2018-04-15T06:38:19.935Z,88.53
2018-04-15T06:40:56.609Z,95.40
2018-04-15T06:43:25.090Z,92.30
2018-04-15T06:45:57.593Z,103.80
2018-04-15T06:48:25.325Z,89.37
2018-04-15T06:50:54.868Z,102.53
2018-04-15T06:53:23.336Z,93.07
2018-04-15T06:58:46.760Z,97.13
2018-04-15T07:01:16.069Z,98.63
2018-04-15T07:03:44.762Z,108.87
2018-04-15T07:06:13.956Z,86.93
2018-04-15T07:08:42.691Z,101.83
2018-04-15T07:11:11.590Z,86.83
2018-04-15T07:13:40.321Z,98.63
2018-04-15T07:16:07.991Z,93.40
2018-04-15T07:18:47.470Z,100.37
2018-04-15T07:21:15.194Z,108.37
2018-04-15T07:23:54.006Z,116.40
2018-04-15T07:26:23.153Z,94.53
2018-04-15T07:28:58.490Z,81.37
2018-04-15T07:31:26.592Z,101.07
2018-04-15T07:33:56.992Z,108.37
2018-04-15T07:36:25.929Z,132.47
2018-04-15T07:38:55.732Z,114.23
2018-04-15T07:41:23.535Z,113.00
2018-04-15T07:43:59.896Z,119.53
2018-04-15T07:46:28.413Z,113.33
2018-04-15T07:49:04.812Z,113.27
2018-04-15T07:51:32.558Z,128.67
2018-04-15T07:56:48.700Z,112.43
2018-04-15T07:59:16.750Z,103.93
2018-04-15T08:01:46.119Z,89.37
2018-04-15T08:04:13.828Z,86.80
2018-04-15T08:06:45.722Z,106.63
2018-04-15T08:09:13.404Z,93.37
2018-04-15T08:11:42.358Z,92.67
2018-04-15T08:14:10.455Z,104.93
2018-04-15T08:16:39.234Z,99.13
2018-04-15T08:19:07.723Z,108.70
2018-04-15T08:21:36.382Z,97.77
2018-04-15T08:24:04.103Z,103.83
2018-04-15T08:26:33.874Z,101.33
2018-04-15T08:29:02.373Z,107.87
2018-04-15T08:31:48.598Z,85.37
2018-04-15T08:34:17.088Z,97.20
2018-04-15T08:36:45.625Z,88.33
2018-04-15T08:39:14.724Z,90.87
2018-04-15T08:41:49.746Z,95.73
2018-04-15T08:44:18.216Z,96.57
2018-04-15T08:46:47.973Z,91.73
2018-04-15T08:49:16.422Z,86.77
2018-04-15T08:51:44.189Z,93.80
2018-04-15T08:54:11.916Z,82.57
2018-04-15T08:56:41.053Z,77.77
2018-04-15T08:59:08.791Z,85.20
2018-04-15T09:01:37.913Z,84.37
2018-04-15T09:04:05.651Z,76.80
2018-04-15T09:06:35.181Z,71.70
2018-04-15T09:09:03.814Z,71.03
2018-04-15T09:11:41.792Z,74.70
2018-04-15T09:14:09.545Z,69.57
2018-04-15T09:16:38.346Z,75.83
2018-04-15T09:19:06.032Z,77.03
2018-04-15T09:21:35.192Z,80.07
2018-04-15T09:24:03.683Z,69.30
2018-04-15T09:26:31.537Z,75.17
2018-04-15T09:29:00.048Z,77.73
2018-04-15T09:31:33.059Z,65.07
2018-04-15T09:34:01.915Z,70.47
2018-04-15T09:36:30.347Z,72.87
2018-04-15T09:38:58.761Z,71.27
2018-04-15T09:41:27.916Z,61.77
2018-04-15T09:43:56.978Z,62.63
2018-04-15T09:46:35.488Z,69.00
2018-04-15T09:49:04.045Z,62.83
2018-04-15T09:51:33.765Z,63.10
2018-04-15T09:54:01.499Z,66.23
2018-04-15T09:56:30.300Z,59.23
2018-04-15T09:58:57.985Z,61.77
2018-04-15T10:01:34.283Z,62.17
2018-04-15T10:04:02.384Z,69.53
2018-04-15T10:06:34.862Z,58.57
2018-04-15T10:09:02.618Z,53.60
2018-04-15T10:11:31.296Z,61.17
2018-04-15T10:13:59.804Z,63.27
2018-04-15T10:16:27.923Z,67.77
2018-04-15T10:18:55.670Z,60.73
2018-04-15T10:21:25.440Z,61.63
2018-04-15T10:23:53.136Z,62.23
2018-04-15T10:26:24.433Z,61.83
2018-04-15T10:28:52.170Z,60.70
2018-04-15T10:31:22.406Z,60.73
2018-04-15T10:33:50.830Z,62.20
2018-04-15T10:36:19.354Z,55.40
2018-04-15T10:38:47.098Z,64.60
2018-04-15T10:41:15.631Z,58.07
2018-04-15T10:43:44.073Z,56.40
2018-04-15T10:46:19.196Z,53.03
2018-04-15T10:48:46.937Z,60.03
2018-04-15T10:51:16.653Z,60.83
2018-04-15T10:53:44.384Z,55.23
2018-04-15T10:56:13.956Z,57.53
2018-04-15T10:58:42.893Z,53.27
2018-04-15T11:01:11.060Z,54.77
2018-04-15T11:03:38.760Z,47.03
2018-04-15T11:06:13.771Z,49.37
2018-04-15T11:08:42.701Z,45.43
2018-04-15T11:11:10.445Z,52.13
2018-04-15T11:13:38.942Z,44.43
2018-04-15T11:16:06.705Z,39.97
2018-04-15T11:18:34.426Z,38.97
2018-04-15T11:21:10.392Z,35.67
2018-04-15T11:23:38.050Z,35.57
2018-04-15T11:26:07.149Z,32.03
2018-04-15T11:28:34.868Z,27.70
2018-04-15T11:31:07.443Z,33.20
2018-04-15T11:33:35.151Z,27.23
2018-04-15T11:36:03.915Z,34.63
2018-04-15T11:38:32.409Z,28.57
2018-04-15T11:41:05.833Z,33.83
2018-04-15T11:43:33.637Z,31.73
2018-04-15T11:46:04.011Z,28.20
2018-04-15T11:48:32.069Z,26.27
2018-04-15T11:50:59.833Z,29.33
2018-04-15T11:53:27.603Z,28.73
2018-04-15T11:55:58.815Z,26.00
2018-04-15T11:58:27.499Z,21.60
2018-04-15T12:00:55.984Z,25.53
2018-04-15T12:03:25.199Z,24.77
2018-04-15T12:05:52.876Z,20.87
2018-04-15T12:08:20.590Z,24.87
2018-04-15T12:10:49.323Z,20.80
2018-04-15T12:13:17.078Z,23.50
2018-04-15T12:15:44.848Z,20.97
2018-04-15T12:18:12.955Z,19.10
2018-04-15T12:20:49.264Z,18.70
2018-04-15T12:23:17.689Z,19.37
2018-04-15T12:25:48.968Z,17.97
2018-04-15T12:28:16.690Z,18.33
2018-04-15T12:30:45.424Z,19.37
2018-04-15T12:33:13.103Z,19.43
2018-04-15T12:35:41.249Z,17.47
2018-04-15T12:38:08.976Z,15.13
2018-04-15T12:40:38.092Z,18.00
2018-04-15T12:43:08.539Z,18.53
2018-04-15T12:45:39.391Z,17.47
2018-04-15T12:48:07.865Z,18.33
2018-04-15T12:50:37.646Z,16.00
2018-04-15T12:53:05.424Z,17.23
2018-04-15T12:55:39.768Z,15.07
2018-04-15T12:58:07.837Z,14.03
2018-04-15T13:00:38.485Z,15.23
2018-04-15T13:03:06.197Z,16.10
2018-04-15T13:05:38.006Z,15.07
2018-04-15T13:08:05.746Z,15.57
2018-04-15T13:10:36.421Z,13.77
2018-04-15T13:13:04.926Z,12.07
2018-04-15T13:15:40.202Z,12.43
2018-04-15T13:18:09.220Z,13.27
2018-04-15T13:20:39.986Z,15.87
2018-04-15T13:23:07.685Z,13.60
2018-04-15T13:25:39.916Z,15.50
2018-04-15T13:28:07.654Z,12.67
2018-04-15T13:30:41.665Z,13.63
2018-04-15T13:33:10.950Z,14.53
2018-04-15T13:35:42.196Z,17.80
2018-04-15T13:38:10.351Z,14.43
2018-04-15T13:40:44.229Z,16.63
2018-04-15T13:43:12.377Z,16.17
2018-04-15T13:45:44.070Z,17.17
2018-04-15T13:48:11.888Z,17.00
2018-04-15T13:50:44.007Z,15.40
2018-04-15T13:53:11.724Z,15.97
2018-04-15T13:55:40.481Z,17.43
2018-04-15T13:58:09.743Z,17.57
2018-04-15T14:00:37.405Z,15.00
2018-04-15T14:03:05.143Z,16.87
2018-04-15T14:05:34.819Z,19.20
2018-04-15T14:08:02.991Z,17.13
2018-04-15T14:10:37.871Z,17.03
2018-04-15T14:13:05.671Z,18.67
2018-04-15T14:15:39.688Z,18.60
2018-04-15T14:18:08.337Z,22.13
2018-04-15T14:20:37.068Z,18.60
2018-04-15T14:23:05.554Z,15.70
2018-04-15T14:25:33.314Z,18.50
2018-04-15T14:28:01.387Z,21.17
2018-04-15T14:30:43.300Z,16.57
2018-04-15T14:33:11.437Z,15.77
2018-04-15T14:35:40.589Z,14.13
2018-04-15T14:38:09.105Z,11.17
2018-04-15T14:40:36.822Z,13.10
2018-04-15T14:43:05.317Z,13.47
2018-04-15T14:45:36.215Z,16.27
2018-04-15T14:48:03.928Z,17.30
2018-04-15T14:50:33.039Z,16.77
2018-04-15T14:53:00.814Z,18.43
2018-04-15T14:55:29.753Z,17.00
2018-04-15T14:57:57.900Z,17.57
2018-04-15T15:03:24.517Z,17.23
2018-04-15T15:05:52.279Z,16.87
2018-04-15T15:08:32.077Z,17.00
2018-04-15T15:10:59.842Z,15.90
2018-04-15T15:13:27.582Z,17.03
2018-04-15T15:15:56.525Z,19.77
2018-04-15T15:18:29.264Z,15.07
2018-04-15T15:20:58.170Z,14.80
2018-04-15T15:23:30.321Z,13.80
2018-04-15T15:25:59.677Z,12.30
2018-04-15T15:28:34.937Z,15.33
2018-04-15T15:31:03.523Z,15.53
2018-04-15T15:33:33.296Z,13.23
2018-04-15T15:36:02.532Z,14.33
2018-04-15T15:38:33.668Z,18.73
2018-04-15T15:41:02.953Z,17.00
2018-04-15T15:43:31.485Z,16.00
2018-04-15T15:45:59.591Z,16.63
2018-04-15T15:48:31.595Z,15.83
2018-04-15T15:51:00.473Z,15.83
2018-04-15T15:53:29.248Z,14.33
2018-04-15T15:55:58.496Z,12.90
2018-04-15T15:58:29.079Z,13.20
2018-04-15T16:00:56.789Z,10.60
2018-04-15T16:03:26.500Z,11.83
2018-04-15T16:05:55.637Z,13.70
2018-04-15T16:08:24.497Z,11.07
2018-04-15T16:10:52.218Z,11.17
2018-04-15T16:13:24.154Z,13.73
2018-04-15T16:15:51.817Z,13.67
2018-04-15T16:18:19.940Z,12.30
2018-04-15T16:20:47.731Z,12.33
2018-04-15T16:23:16.604Z,13.63
2018-04-15T16:25:44.343Z,14.40
2018-04-15T16:28:15.630Z,11.27
2018-04-15T16:30:43.858Z,12.50
2018-04-15T16:33:15.740Z,12.53
2018-04-15T16:35:43.498Z,15.17
2018-04-15T16:38:25.403Z,14.97
2018-04-15T16:40:53.087Z,14.13
2018-04-15T16:43:25.375Z,15.37
2018-04-15T16:45:53.057Z,14.13
2018-04-15T16:48:22.234Z,12.80
2018-04-15T16:50:51.133Z,17.50
2018-04-15T16:53:26.912Z,24.63
2018-04-15T16:55:54.696Z,16.53
2018-04-15T16:58:30.500Z,15.23
2018-04-15T17:00:58.232Z,14.60
2018-04-15T17:03:25.988Z,15.90
2018-04-15T17:05:54.150Z,15.87
2018-04-15T17:08:21.899Z,38.57
2018-04-15T17:10:50.957Z,31.47
2018-04-15T17:13:18.707Z,17.30
2018-04-15T17:15:46.588Z,18.57
2018-04-15T17:24:09.084Z,20.77
2018-04-15T17:26:38.327Z,19.97
2018-04-15T17:29:20.915Z,19.73
2018-04-15T17:31:49.077Z,17.47
2018-04-15T17:34:18.773Z,17.53
2018-04-15T17:36:47.389Z,16.73
2018-04-15T17:39:16.886Z,20.60
2018-04-15T17:41:45.390Z,19.53
2018-04-15T17:44:17.764Z,19.57
2018-04-15T17:46:45.512Z,21.77
2018-04-15T17:49:17.948Z,21.30
2018-04-15T17:51:45.657Z,19.07
2018-04-15T17:54:15.129Z,21.90
2018-04-15T17:56:43.979Z,23.33
2018-04-15T17:59:11.724Z,20.17
2018-04-15T18:01:39.827Z,23.03
2018-04-15T18:04:13.735Z,19.13
2018-04-15T18:06:41.830Z,20.33
2018-04-15T18:09:09.557Z,21.10
2018-04-15T18:11:38.803Z,19.27
2018-04-15T18:14:10.290Z,24.70
2018-04-15T18:16:38.060Z,24.67
2018-04-15T18:19:07.053Z,25.57
2018-04-15T18:21:35.930Z,22.33
2018-04-15T18:24:03.599Z,23.70
2018-04-15T18:26:31.315Z,24.40
2018-04-15T18:29:00.049Z,23.87
2018-04-15T18:31:27.764Z,26.03
2018-04-15T18:34:01.280Z,29.10
2018-04-15T18:36:29.785Z,26.47
2018-04-15T18:38:58.560Z,25.23
2018-04-15T18:41:26.435Z,25.00
2018-04-15T18:43:54.124Z,27.33
2018-04-15T18:46:22.244Z,21.40
2018-04-15T18:49:06.744Z,26.87
2018-04-15T18:51:34.585Z,25.07
2018-04-15T18:54:06.915Z,26.47
2018-04-15T18:56:34.657Z,28.90
2018-04-15T18:59:07.306Z,31.77
2018-04-15T19:01:35.372Z,28.63
2018-04-15T19:04:03.158Z,32.80
2018-04-15T19:06:30.886Z,26.33
2018-04-15T19:09:00.392Z,23.57
2018-04-15T19:11:28.487Z,25.63
2018-04-15T19:14:00.878Z,26.50
2018-04-15T19:16:29.739Z,22.03
2018-04-15T19:18:57.545Z,25.03
2018-04-15T19:21:25.283Z,27.17
2018-04-15T19:23:54.205Z,30.40
2018-04-15T19:26:21.959Z,28.47
2018-04-15T19:28:50.466Z,31.17
2018-04-15T19:31:26.679Z,33.50
2018-04-15T19:33:54.864Z,30.37
2018-04-15T19:36:27.321Z,29.27
2018-04-15T19:38:55.135Z,27.80
2018-04-15T19:41:27.877Z,30.40
2018-04-15T19:43:55.745Z,35.20
2018-04-15T19:46:39.005Z,35.57
2018-04-15T19:49:07.262Z,30.53
2018-04-15T19:51:36.949Z,30.10
2018-04-15T19:54:04.681Z,30.27
2018-04-15T19:56:43.969Z,29.30
2018-04-15T19:59:11.631Z,30.37
2018-04-15T20:01:42.444Z,32.90
2018-04-15T20:04:10.236Z,31.13
2018-04-15T20:06:43.164Z,35.03
2018-04-15T20:09:11.278Z,30.00
2018-04-15T20:11:42.390Z,29.73
2018-04-15T20:14:10.093Z,28.93
2018-04-15T20:16:38.655Z,31.63
2018-04-15T20:19:07.185Z,32.77
2018-04-15T20:21:48.920Z,26.80
2018-04-15T20:24:17.055Z,38.23
2018-04-15T20:26:46.672Z,38.60
2018-04-15T20:29:15.350Z,36.23
2018-04-15T20:31:44.759Z,33.57
2018-04-15T20:34:12.846Z,38.67
2018-04-15T20:36:43.435Z,37.37
2018-04-15T20:39:11.520Z,39.37
2018-04-15T20:41:59.811Z,32.80
2018-04-15T20:44:28.616Z,37.73
2018-04-15T20:46:58.432Z,44.77
2018-04-15T20:49:26.158Z,47.60
2018-04-15T20:51:57.720Z,46.97
2018-04-15T20:54:25.532Z,45.27
2018-04-15T20:56:54.979Z,39.60
2018-04-15T20:59:23.102Z,46.20
2018-04-15T21:02:01.926Z,42.27
2018-04-15T21:04:29.658Z,45.17
2018-04-15T21:07:01.342Z,46.00
2018-04-15T21:09:29.489Z,37.07
2018-04-15T21:11:57.195Z,38.90
2018-04-15T21:14:25.717Z,38.20
2018-04-15T21:17:10.862Z,36.33
2018-04-15T21:19:38.593Z,32.23
2018-04-15T21:22:07.887Z,42.60
2018-04-15T21:24:35.595Z,41.80
2018-04-15T21:27:03.740Z,37.97
2018-04-15T21:29:31.877Z,39.93
2018-04-15T21:31:59.654Z,33.07
2018-04-15T21:34:27.298Z,34.43
2018-04-15T21:36:55.382Z,36.23
2018-04-15T21:39:23.101Z,39.50
2018-04-15T21:41:51.264Z,33.67
2018-04-15T21:44:19.433Z,37.13
2018-04-15T21:46:47.120Z,36.30
2018-04-15T21:49:15.566Z,36.60
2018-04-15T21:52:06.703Z,38.23
2018-04-15T21:54:35.217Z,39.07
2018-04-15T21:57:11.921Z,38.60
2018-04-15T21:59:40.037Z,43.83
2018-04-15T22:02:09.751Z,45.43
2018-04-15T22:04:38.858Z,48.40
2018-04-15T22:07:12.377Z,44.00
2018-04-15T22:09:40.455Z,41.60
2018-04-15T22:12:14.445Z,46.50
2018-04-15T22:14:42.650Z,41.50
2018-04-15T22:17:12.384Z,40.23
2018-04-15T22:19:40.876Z,42.00
2018-04-15T22:22:14.885Z,40.00
2018-04-15T22:24:43.872Z,43.07
2018-04-15T22:27:16.809Z,52.03
2018-04-15T22:29:44.461Z,48.90
2018-04-15T22:32:16.312Z,49.13
2018-04-15T22:34:44.013Z,54.27
2018-04-15T22:37:13.308Z,49.40
2018-04-15T22:39:41.384Z,42.83
2018-04-15T22:45:10.227Z,47.87
2018-04-15T22:47:44.384Z,56.57
2018-04-15T22:50:18.035Z,51.23
2018-04-15T22:52:53.663Z,38.93
2018-04-15T22:55:23.093Z,40.53
2018-04-15T22:57:50.782Z,49.80
2018-04-15T23:00:22.760Z,42.60
2018-04-15T23:02:50.485Z,46.40
2018-04-15T23:05:21.120Z,37.23
2018-04-15T23:07:49.581Z,47.07
2018-04-15T23:10:22.493Z,42.70
2018-04-15T23:12:50.981Z,45.90
2018-04-15T23:15:19.710Z,45.47
2018-04-15T23:17:47.470Z,44.30
2018-04-15T23:20:17.615Z,53.30
2018-04-15T23:22:45.750Z,48.30
2018-04-15T23:25:20.179Z,45.27
2018-04-15T23:27:48.392Z,53.13
2018-04-15T23:30:29.497Z,55.30
2018-04-15T23:32:57.619Z,47.53
2018-04-15T23:35:30.362Z,43.97
2018-04-15T23:37:58.906Z,43.40
2018-04-15T23:40:31.785Z,45.70
2018-04-15T23:43:00.376Z,42.63
2018-04-15T23:45:36.493Z,47.40
2018-04-15T23:48:04.211Z,37.57
2018-04-15T23:50:32.974Z,40.10
2018-04-15T23:53:00.637Z,41.70
2018-04-15T23:55:28.333Z,36.37
2018-04-15T23:57:56.138Z,39.60
